sensor_id;sensor_type;location;lat;lon;timestamp;pressure;altitude;pressure_sealevel;temperature;humidity
10510;BME280;5303;53.266;10.410;2023-08-06T00:00:45;100598.72;;;16.06;100.00
10510;BME280;5303;53.266;10.410;2023-08-06T00:03:10;100594.22;;;16.08;100.00
10510;BME280;5303;53.266;10.410;2023-08-06T00:05:35;100590.91;;;16.00;100.00
10510;BME280;5303;53.266;10.410;2023-08-06T00:08:01;100590.88;;;16.02;100.00
10510;BME280;5303;53.266;10.410;2023-08-06T00:10:26;100583.59;;;16.08;100.00
10510;BME280;5303;53.266;10.410;2023-08-06T00:12:51;100589.16;;;15.99;100.00
10510;BME280;5303;53.266;10.410;2023-08-06T00:15:17;100585.75;;;15.96;100.00
10510;BME280;5303;53.266;10.410;2023-08-06T00:17:42;100596.44;;;15.93;100.00
10510;BME280;5303;53.266;10.410;2023-08-06T00:20:08;100596.44;;;15.93;100.00
10510;BME280;5303;53.266;10.410;2023-08-06T00:22:34;100598.25;;;15.92;100.00
10510;BME280;5303;53.266;10.410;2023-08-06T00:24:59;100606.97;;;15.97;100.00
10510;BME280;5303;53.266;10.410;2023-08-06T00:27:25;100605.41;;;15.90;100.00
10510;BME280;5303;53.266;10.410;2023-08-06T00:29:51;100607.13;;;15.91;100.00
10510;BME280;5303;53.266;10.410;2023-08-06T00:32:17;100600.16;;;15.87;100.00
10510;BME280;5303;53.266;10.410;2023-08-06T00:34:42;100595.97;;;15.78;100.00
10510;BME280;5303;53.266;10.410;2023-08-06T00:37:07;100590.72;;;15.77;100.00
10510;BME280;5303;53.266;10.410;2023-08-06T00:39:32;100596.94;;;15.76;100.00
10510;BME280;5303;53.266;10.410;2023-08-06T00:41:58;100587.22;;;15.75;100.00
10510;BME280;5303;53.266;10.410;2023-08-06T00:44:23;100583.84;;;15.68;100.00
10510;BME280;5303;53.266;10.410;2023-08-06T00:46:48;100578.56;;;15.67;100.00
10510;BME280;5303;53.266;10.410;2023-08-06T00:49:14;100578.69;;;15.64;100.00
10510;BME280;5303;53.266;10.410;2023-08-06T00:51:39;100574.31;;;15.60;100.00
10510;BME280;5303;53.266;10.410;2023-08-06T00:54:05;100569.88;;;15.60;100.00
10510;BME280;5303;53.266;10.410;2023-08-06T00:56:30;100570.81;;;15.57;100.00
10510;BME280;5303;53.266;10.410;2023-08-06T00:58:56;100568.16;;;15.57;100.00
10510;BME280;5303;53.266;10.410;2023-08-06T01:01:22;100571.78;;;15.55;100.00
10510;BME280;5303;53.266;10.410;2023-08-06T01:03:47;100563.84;;;15.53;100.00
10510;BME280;5303;53.266;10.410;2023-08-06T01:06:12;100569.13;;;15.55;100.00
10510;BME280;5303;53.266;10.410;2023-08-06T01:08:57;100560.34;;;15.51;100.00
10510;BME280;5303;53.266;10.410;2023-08-06T01:11:27;100555.13;;;15.48;100.00
10510;BME280;5303;53.266;10.410;2023-08-06T01:14:08;100549.69;;;15.51;100.00
10510;BME280;5303;53.266;10.410;2023-08-06T01:16:37;100542.75;;;15.47;100.00
10510;BME280;5303;53.266;10.410;2023-08-06T01:19:02;100537.31;;;15.50;100.00
10510;BME280;5303;53.266;10.410;2023-08-06T01:21:28;100544.38;;;15.53;100.00
10510;BME280;5303;53.266;10.410;2023-08-06T01:23:53;100536.47;;;15.50;100.00
10510;BME280;5303;53.266;10.410;2023-08-06T01:26:33;100530.19;;;15.52;100.00
10510;BME280;5303;53.266;10.410;2023-08-06T01:29:07;100521.53;;;15.46;100.00
10510;BME280;5303;53.266;10.410;2023-08-06T01:31:37;100516.97;;;15.49;100.00
10510;BME280;5303;53.266;10.410;2023-08-06T01:34:07;100524.09;;;15.49;100.00
10510;BME280;5303;53.266;10.410;2023-08-06T01:36:33;100516.00;;;15.52;100.00
10510;BME280;5303;53.266;10.410;2023-08-06T01:38:59;100514.31;;;15.49;100.00
10510;BME280;5303;53.266;10.410;2023-08-06T01:41:25;100509.00;;;15.49;100.00
10510;BME280;5303;53.266;10.410;2023-08-06T01:43:50;100503.59;;;15.52;100.00
10510;BME280;5303;53.266;10.410;2023-08-06T01:46:15;100498.28;;;15.52;100.00
10510;BME280;5303;53.266;10.410;2023-08-06T01:48:41;100494.63;;;15.56;100.00
10510;BME280;5303;53.266;10.410;2023-08-06T01:51:06;100492.03;;;15.55;100.00
10510;BME280;5303;53.266;10.410;2023-08-06T01:53:32;100486.66;;;15.56;100.00
10510;BME280;5303;53.266;10.410;2023-08-06T01:55:58;100483.13;;;15.56;100.00
10510;BME280;5303;53.266;10.410;2023-08-06T01:58:23;100473.34;;;15.56;100.00
10510;BME280;5303;53.266;10.410;2023-08-06T02:00:48;100473.25;;;15.60;100.00
10510;BME280;5303;53.266;10.410;2023-08-06T02:03:14;100474.16;;;15.60;100.00
10510;BME280;5303;53.266;10.410;2023-08-06T02:05:40;100468.97;;;15.55;100.00
10510;BME280;5303;53.266;10.410;2023-08-06T02:08:05;100464.63;;;15.51;100.00
10510;BME280;5303;53.266;10.410;2023-08-06T02:10:30;100461.06;;;15.52;100.00
10510;BME280;5303;53.266;10.410;2023-08-06T02:12:55;100464.63;;;15.51;100.00
10510;BME280;5303;53.266;10.410;2023-08-06T02:15:21;100455.94;;;15.46;100.00
10510;BME280;5303;53.266;10.410;2023-08-06T02:17:46;100452.34;;;15.47;100.00
10510;BME280;5303;53.266;10.410;2023-08-06T02:20:11;100460.31;;;15.47;100.00
10510;BME280;5303;53.266;10.410;2023-08-06T02:22:36;100454.97;;;15.49;100.00
10510;BME280;5303;53.266;10.410;2023-08-06T02:25:02;100454.88;;;15.52;100.00
10510;BME280;5303;53.266;10.410;2023-08-06T02:27:27;100461.06;;;15.52;100.00
10510;BME280;5303;53.266;10.410;2023-08-06T02:29:52;100461.06;;;15.52;100.00
10510;BME280;5303;53.266;10.410;2023-08-06T02:32:18;100453.13;;;15.51;100.00
10510;BME280;5303;53.266;10.410;2023-08-06T02:34:43;100457.50;;;15.53;100.00
10510;BME280;5303;53.266;10.410;2023-08-06T02:37:08;100455.66;;;15.55;100.00
10510;BME280;5303;53.266;10.410;2023-08-06T02:39:33;100450.47;;;15.51;100.00
10510;BME280;5303;53.266;10.410;2023-08-06T02:42:00;100448.78;;;15.48;100.00
10510;BME280;5303;53.266;10.410;2023-08-06T02:44:29;100443.47;;;15.48;100.00
10510;BME280;5303;53.266;10.410;2023-08-06T02:46:54;100446.13;;;15.48;100.00
10510;BME280;5303;53.266;10.410;2023-08-06T02:49:19;100440.94;;;15.44;100.00
10510;BME280;5303;53.266;10.410;2023-08-06T02:51:45;100445.41;;;15.42;100.00
10510;BME280;5303;53.266;10.410;2023-08-06T02:54:10;100453.31;;;15.45;100.00
10510;BME280;5303;53.266;10.410;2023-08-06T02:56:36;100453.31;;;15.45;100.00
10510;BME280;5303;53.266;10.410;2023-08-06T02:59:01;100453.28;;;15.46;100.00
10510;BME280;5303;53.266;10.410;2023-08-06T03:01:26;100449.69;;;15.47;100.00
10510;BME280;5303;53.266;10.410;2023-08-06T03:03:53;100447.09;;;15.46;100.00
10510;BME280;5303;53.266;10.410;2023-08-06T03:06:18;100438.13;;;15.48;100.00
10510;BME280;5303;53.266;10.410;2023-08-06T03:08:44;100440.81;;;15.48;100.00
10510;BME280;5303;53.266;10.410;2023-08-06T03:11:09;100434.66;;;15.46;100.00
10510;BME280;5303;53.266;10.410;2023-08-06T03:13:34;100423.22;;;15.44;100.00
10510;BME280;5303;53.266;10.410;2023-08-06T03:16:00;100425.06;;;15.41;100.00
10510;BME280;5303;53.266;10.410;2023-08-06T03:18:26;100427.78;;;15.39;100.00
10510;BME280;5303;53.266;10.410;2023-08-06T03:20:51;100414.44;;;15.41;100.00
10510;BME280;5303;53.266;10.410;2023-08-06T03:23:17;100411.81;;;15.39;100.00
10510;BME280;5303;53.266;10.410;2023-08-06T03:25:42;100408.28;;;15.39;100.00
10510;BME280;5303;53.266;10.410;2023-08-06T03:28:08;100401.19;;;15.39;100.00
10510;BME280;5303;53.266;10.410;2023-08-06T03:30:33;100408.34;;;15.37;100.00
10510;BME280;5303;53.266;10.410;2023-08-06T03:32:58;100401.19;;;15.39;100.00
10510;BME280;5303;53.266;10.410;2023-08-06T03:35:23;100389.69;;;15.39;100.00
10510;BME280;5303;53.266;10.410;2023-08-06T03:37:49;100391.53;;;15.37;100.00
10510;BME280;5303;53.266;10.410;2023-08-06T03:40:15;100389.84;;;15.34;100.00
10510;BME280;5303;53.266;10.410;2023-08-06T03:42:40;100398.72;;;15.33;100.00
10510;BME280;5303;53.266;10.410;2023-08-06T03:45:06;100401.47;;;15.30;100.00
10510;BME280;5303;53.266;10.410;2023-08-06T03:47:31;100396.13;;;15.30;100.00
10510;BME280;5303;53.266;10.410;2023-08-06T03:49:56;100393.53;;;15.28;100.00
10510;BME280;5303;53.266;10.410;2023-08-06T03:52:22;100394.59;;;15.23;100.00
10510;BME280;5303;53.266;10.410;2023-08-06T03:54:47;100383.88;;;15.26;100.00
10510;BME280;5303;53.266;10.410;2023-08-06T03:57:12;100384.75;;;15.26;100.00
10510;BME280;5303;53.266;10.410;2023-08-06T03:59:37;100380.34;;;15.25;100.00
10510;BME280;5303;53.266;10.410;2023-08-06T04:02:03;100385.72;;;15.24;100.00
10510;BME280;5303;53.266;10.410;2023-08-06T04:04:28;100381.38;;;15.20;100.00
10510;BME280;5303;53.266;10.410;2023-08-06T04:06:53;100380.47;;;15.21;100.00
10510;BME280;5303;53.266;10.410;2023-08-06T04:09:19;100376.13;;;15.18;100.00
10510;BME280;5303;53.266;10.410;2023-08-06T04:11:44;100379.59;;;15.20;100.00
10510;BME280;5303;53.266;10.410;2023-08-06T04:14:09;100382.28;;;15.19;100.00
10510;BME280;5303;53.266;10.410;2023-08-06T04:16:35;100380.56;;;15.18;100.00
10510;BME280;5303;53.266;10.410;2023-08-06T04:19:00;100379.53;;;15.22;100.00
10510;BME280;5303;53.266;10.410;2023-08-06T04:21:25;100385.72;;;15.24;100.00
10510;BME280;5303;53.266;10.410;2023-08-06T04:23:50;100387.44;;;15.25;100.00
10510;BME280;5303;53.266;10.410;2023-08-06T04:26:16;100383.88;;;15.26;100.00
10510;BME280;5303;53.266;10.410;2023-08-06T04:28:41;100385.59;;;15.27;100.00
10510;BME280;5303;53.266;10.410;2023-08-06T04:31:06;100389.13;;;15.27;100.00
10510;BME280;5303;53.266;10.410;2023-08-06T04:33:32;100397.97;;;15.28;100.00
10510;BME280;5303;53.266;10.410;2023-08-06T04:35:57;100380.25;;;15.28;100.00
10510;BME280;5303;53.266;10.410;2023-08-06T04:38:25;100381.13;;;15.29;100.00
10510;BME280;5303;53.266;10.410;2023-08-06T04:40:51;100387.34;;;15.28;100.00
10510;BME280;5303;53.266;10.410;2023-08-06T04:43:17;100383.88;;;15.26;100.00
10510;BME280;5303;53.266;10.410;2023-08-06T04:45:53;100381.16;;;15.27;100.00
10510;BME280;5303;53.266;10.410;2023-08-06T04:48:19;100368.78;;;15.26;100.00
10510;BME280;5303;53.266;10.410;2023-08-06T04:50:49;100374.97;;;15.27;100.00
10510;BME280;5303;53.266;10.410;2023-08-06T04:53:14;100379.38;;;15.28;100.00
10510;BME280;5303;53.266;10.410;2023-08-06T04:55:40;100365.22;;;15.27;100.00
10510;BME280;5303;53.266;10.410;2023-08-06T04:58:05;100376.72;;;15.28;100.00
10510;BME280;5303;53.266;10.410;2023-08-06T05:00:31;100383.88;;;15.26;100.00
10510;BME280;5303;53.266;10.410;2023-08-06T05:02:57;100384.78;;;15.25;100.00
10510;BME280;5303;53.266;10.410;2023-08-06T05:05:23;100379.38;;;15.28;100.00
10510;BME280;5303;53.266;10.410;2023-08-06T05:07:49;100371.41;;;15.28;100.00
10510;BME280;5303;53.266;10.410;2023-08-06T05:10:15;100379.31;;;15.30;100.00
10510;BME280;5303;53.266;10.410;2023-08-06T05:12:40;100382.91;;;15.28;100.00
10510;BME280;5303;53.266;10.410;2023-08-06T05:15:06;100382.03;;;15.28;100.00
10510;BME280;5303;53.266;10.410;2023-08-06T05:17:32;100374.00;;;15.30;100.00
10510;BME280;5303;53.266;10.410;2023-08-06T05:19:57;100384.69;;;15.28;100.00
10510;BME280;5303;53.266;10.410;2023-08-06T05:22:23;100374.00;;;15.30;100.00
10510;BME280;5303;53.266;10.410;2023-08-06T05:24:48;100377.59;;;15.28;100.00
10510;BME280;5303;53.266;10.410;2023-08-06T05:27:13;100380.28;;;15.27;100.00
10510;BME280;5303;53.266;10.410;2023-08-06T05:29:39;100376.72;;;15.28;100.00
10510;BME280;5303;53.266;10.410;2023-08-06T05:32:04;100370.38;;;15.32;100.00
10510;BME280;5303;53.266;10.410;2023-08-06T05:34:30;100373.97;;;15.31;100.00
10510;BME280;5303;53.266;10.410;2023-08-06T05:36:55;100373.84;;;15.36;100.00
10510;BME280;5303;53.266;10.410;2023-08-06T05:39:20;100371.03;;;15.40;100.00
10510;BME280;5303;53.266;10.410;2023-08-06T05:41:45;100365.66;;;15.43;100.00
10510;BME280;5303;53.266;10.410;2023-08-06T05:44:11;100371.72;;;15.47;100.00
10510;BME280;5303;53.266;10.410;2023-08-06T05:46:36;100368.06;;;15.51;100.00
10510;BME280;5303;53.266;10.410;2023-08-06T05:49:02;100374.16;;;15.54;100.00
10510;BME280;5303;53.266;10.410;2023-08-06T05:51:27;100374.06;;;15.57;100.00
10510;BME280;5303;53.266;10.410;2023-08-06T05:53:53;100372.19;;;15.61;100.00
10510;BME280;5303;53.266;10.410;2023-08-06T05:56:18;100367.72;;;15.63;100.00
10510;BME280;5303;53.266;10.410;2023-08-06T05:58:43;100373.91;;;15.64;100.00
10510;BME280;5303;53.266;10.410;2023-08-06T06:01:09;100366.75;;;15.66;100.00
10510;BME280;5303;53.266;10.410;2023-08-06T06:03:34;100376.38;;;15.70;100.00
10510;BME280;5303;53.266;10.410;2023-08-06T06:06:01;100373.59;;;15.73;100.00
10510;BME280;5303;53.266;10.410;2023-08-06T06:08:26;100366.47;;;15.75;100.00
10510;BME280;5303;53.266;10.410;2023-08-06T06:10:51;100374.41;;;15.76;100.00
10510;BME280;5303;53.266;10.410;2023-08-06T06:13:17;100369.78;;;15.81;100.00
10510;BME280;5303;53.266;10.410;2023-08-06T06:15:42;100374.16;;;15.84;100.00
10510;BME280;5303;53.266;10.410;2023-08-06T06:18:07;100361.75;;;15.83;100.00
10510;BME280;5303;53.266;10.410;2023-08-06T06:20:32;100361.75;;;15.84;100.00
10510;BME280;5303;53.266;10.410;2023-08-06T06:22:58;100362.59;;;15.85;100.00
10510;BME280;5303;53.266;10.410;2023-08-06T06:25:24;100357.28;;;15.85;100.00
10510;BME280;5303;53.266;10.410;2023-08-06T06:27:49;100353.88;;;15.80;100.00
10510;BME280;5303;53.266;10.410;2023-08-06T06:30:14;100352.97;;;15.81;100.00
10510;BME280;5303;53.266;10.410;2023-08-06T06:32:40;100355.56;;;15.84;100.00
10510;BME280;5303;53.266;10.410;2023-08-06T06:35:06;100348.38;;;15.86;100.00
10510;BME280;5303;53.266;10.410;2023-08-06T06:37:31;100349.25;;;15.87;100.00
10510;BME280;5303;53.266;10.410;2023-08-06T06:39:56;100346.53;;;15.88;100.00
10510;BME280;5303;53.266;10.410;2023-08-06T06:42:22;100350.00;;;15.90;100.00
10510;BME280;5303;53.266;10.410;2023-08-06T06:44:48;100350.75;;;15.95;100.00
10510;BME280;5303;53.266;10.410;2023-08-06T06:47:13;100348.97;;;15.96;100.00
10510;BME280;5303;53.266;10.410;2023-08-06T06:49:38;100344.41;;;15.99;100.00
10510;BME280;5303;53.266;10.410;2023-08-06T06:52:04;100350.47;;;16.03;100.00
10510;BME280;5303;53.266;10.410;2023-08-06T06:54:29;100353.06;;;16.06;100.00
10510;BME280;5303;53.266;10.410;2023-08-06T06:56:55;100343.97;;;16.11;100.00
10510;BME280;5303;53.266;10.410;2023-08-06T06:59:20;100342.94;;;16.17;100.00
10510;BME280;5303;53.266;10.410;2023-08-06T07:01:45;100340.22;;;16.19;100.00
10510;BME280;5303;53.266;10.410;2023-08-06T07:04:10;100343.69;;;16.21;100.00
10510;BME280;5303;53.266;10.410;2023-08-06T07:06:36;100342.97;;;16.16;100.00
10510;BME280;5303;53.266;10.410;2023-08-06T07:09:01;100344.59;;;16.20;100.00
10510;BME280;5303;53.266;10.410;2023-08-06T07:11:27;100339.28;;;16.20;100.00
10510;BME280;5303;53.266;10.410;2023-08-06T07:13:58;100346.41;;;16.19;100.00
10510;BME280;5303;53.266;10.410;2023-08-06T07:16:25;100333.16;;;16.18;100.00
10510;BME280;5303;53.266;10.410;2023-08-06T07:18:54;100334.88;;;16.19;100.00
10510;BME280;5303;53.266;10.410;2023-08-06T07:21:19;100338.34;;;16.21;100.00
10510;BME280;5303;53.266;10.410;2023-08-06T07:23:45;100342.94;;;16.17;100.00
10510;BME280;5303;53.266;10.410;2023-08-06T07:26:10;100348.19;;;16.19;100.00
10510;BME280;5303;53.266;10.410;2023-08-06T07:28:36;100348.88;;;16.25;100.00
10510;BME280;5303;53.266;10.410;2023-08-06T07:31:02;100344.50;;;16.23;100.00
10510;BME280;5303;53.266;10.410;2023-08-06T07:33:28;100344.50;;;16.23;100.00
10510;BME280;5303;53.266;10.410;2023-08-06T07:35:53;100346.22;;;16.24;100.00
10510;BME280;5303;53.266;10.410;2023-08-06T07:38:19;100347.06;;;16.26;100.00
10510;BME280;5303;53.266;10.410;2023-08-06T07:40:45;100341.03;;;16.21;100.00
10510;BME280;5303;53.266;10.410;2023-08-06T07:43:10;100345.34;;;16.25;100.00
10510;BME280;5303;53.266;10.410;2023-08-06T07:45:36;100344.66;;;16.18;100.00
10510;BME280;5303;53.266;10.410;2023-08-06T07:48:02;100352.47;;;16.23;100.00
10510;BME280;5303;53.266;10.410;2023-08-06T07:50:27;100347.06;;;16.26;100.00
10510;BME280;5303;53.266;10.410;2023-08-06T07:52:53;100350.44;;;16.31;100.00
10510;BME280;5303;53.266;10.410;2023-08-06T07:55:18;100345.09;;;16.31;100.00
10510;BME280;5303;53.266;10.410;2023-08-06T07:57:43;100346.75;;;16.35;100.00
10510;BME280;5303;53.266;10.410;2023-08-06T08:00:08;100349.44;;;16.33;100.00
10510;BME280;5303;53.266;10.410;2023-08-06T08:02:34;100344.78;;;16.40;100.00
10510;BME280;5303;53.266;10.410;2023-08-06T08:05:00;100350.75;;;16.22;100.00
10510;BME280;5303;53.266;10.410;2023-08-06T08:07:25;100343.94;;;16.13;100.00
10510;BME280;5303;53.266;10.410;2023-08-06T08:09:52;100344.84;;;16.12;100.00
10510;BME280;5303;53.266;10.410;2023-08-06T08:12:18;100342.88;;;16.19;100.00
10510;BME280;5303;53.266;10.410;2023-08-06T08:14:43;100348.25;;;16.17;100.00
10510;BME280;5303;53.266;10.410;2023-08-06T08:17:10;100341.84;;;16.23;100.00
10510;BME280;5303;53.266;10.410;2023-08-06T08:19:36;100345.34;;;16.25;100.00
10510;BME280;5303;53.266;10.410;2023-08-06T08:22:01;100340.53;;;16.34;100.00
10510;BME280;5303;53.266;10.410;2023-08-06T08:24:26;100338.03;;;16.30;100.00
10510;BME280;5303;53.266;10.410;2023-08-06T08:26:52;100340.66;;;16.31;100.00
10510;BME280;5303;53.266;10.410;2023-08-06T08:29:19;100344.25;;;16.30;100.00
10510;BME280;5303;53.266;10.410;2023-08-06T08:31:46;100339.84;;;16.29;100.00
10510;BME280;5303;53.266;10.410;2023-08-06T08:34:14;100344.25;;;16.30;100.00
10510;BME280;5303;53.266;10.410;2023-08-06T08:36:39;100336.19;;;16.32;100.00
10510;BME280;5303;53.266;10.410;2023-08-06T08:39:04;100328.94;;;16.37;100.00
10510;BME280;5303;53.266;10.410;2023-08-06T08:41:30;100329.63;;;16.42;100.00
10510;BME280;5303;53.266;10.410;2023-08-06T08:43:58;100335.69;;;16.47;100.00
10510;BME280;5303;53.266;10.410;2023-08-06T08:46:25;100334.59;;;16.53;100.00
10510;BME280;5303;53.266;10.410;2023-08-06T08:48:51;100332.69;;;16.56;100.00
10510;BME280;5303;53.266;10.410;2023-08-06T08:51:17;100326.22;;;16.63;100.00
10510;BME280;5303;53.266;10.410;2023-08-06T08:53:44;100332.59;;;16.59;100.00
10510;BME280;5303;53.266;10.410;2023-08-06T08:56:10;100321.81;;;16.62;100.00
10510;BME280;5303;53.266;10.410;2023-08-06T08:58:37;100323.59;;;16.62;100.00
10510;BME280;5303;53.266;10.410;2023-08-06T09:01:03;100314.63;;;16.64;100.00
10510;BME280;5303;53.266;10.410;2023-08-06T09:03:29;100326.44;;;16.57;100.00
10510;BME280;5303;53.266;10.410;2023-08-06T09:05:56;100321.81;;;16.62;100.00
10510;BME280;5303;53.266;10.410;2023-08-06T09:08:27;100321.63;;;16.68;100.00
10510;BME280;5303;53.266;10.410;2023-08-06T09:10:56;100313.41;;;16.75;100.00
10510;BME280;5303;53.266;10.410;2023-08-06T09:13:22;100319.25;;;16.86;100.00
10510;BME280;5303;53.266;10.410;2023-08-06T09:15:48;100318.31;;;16.87;100.00
10510;BME280;5303;53.266;10.410;2023-08-06T09:18:15;100312.81;;;16.91;100.00
10510;BME280;5303;53.266;10.410;2023-08-06T09:20:49;100316.84;;;17.02;100.00
10510;BME280;5303;53.266;10.410;2023-08-06T09:23:15;100321.09;;;17.07;100.00
10510;BME280;5303;53.266;10.410;2023-08-06T09:25:40;100318.47;;;17.06;100.00
10510;BME280;5303;53.266;10.410;2023-08-06T09:28:06;100319.34;;;17.06;100.00
10510;BME280;5303;53.266;10.410;2023-08-06T09:30:36;100319.25;;;17.09;100.00
10510;BME280;5303;53.266;10.410;2023-08-06T09:33:02;100310.25;;;17.12;100.00
10510;BME280;5303;53.266;10.410;2023-08-06T09:35:29;100311.84;;;17.17;100.00
10510;BME280;5303;53.266;10.410;2023-08-06T09:37:55;100313.44;;;17.21;100.00
10510;BME280;5303;53.266;10.410;2023-08-06T09:40:32;100317.25;;;17.14;100.00
10510;BME280;5303;53.266;10.410;2023-08-06T09:42:58;100315.31;;;17.19;100.00
10510;BME280;5303;53.266;10.410;2023-08-06T09:45:30;100311.22;;;17.33;100.00
10510;BME280;5303;53.266;10.410;2023-08-06T09:47:57;100318.41;;;17.31;100.00
10510;BME280;5303;53.266;10.410;2023-08-06T09:50:29;100315.97;;;17.24;100.00
10510;BME280;5303;53.266;10.410;2023-08-06T09:52:57;100310.06;;;17.40;100.00
10510;BME280;5303;53.266;10.410;2023-08-06T09:55:23;100314.81;;;17.32;100.00
10510;BME280;5303;53.266;10.410;2023-08-06T09:57:50;100316.22;;;17.42;100.00
10510;BME280;5303;53.266;10.410;2023-08-06T10:00:15;100312.44;;;17.47;100.00
10510;BME280;5303;53.266;10.410;2023-08-06T10:02:41;100308.88;;;17.47;100.00
10510;BME280;5303;53.266;10.410;2023-08-06T10:05:08;100309.28;;;17.38;100.00
10510;BME280;5303;53.266;10.410;2023-08-06T10:07:34;100309.56;;;17.30;100.00
10510;BME280;5303;53.266;10.410;2023-08-06T10:10:00;100309.63;;;17.28;100.00
10510;BME280;5303;53.266;10.410;2023-08-06T10:12:26;100307.16;;;17.46;100.00
10510;BME280;5303;53.266;10.410;2023-08-06T10:14:56;100305.69;;;17.61;100.00
10510;BME280;5303;53.266;10.410;2023-08-06T10:17:22;100306.91;;;17.52;100.00
10510;BME280;5303;53.266;10.410;2023-08-06T10:19:49;100302.94;;;17.62;100.00
10510;BME280;5303;53.266;10.410;2023-08-06T10:22:16;100301.22;;;17.61;100.00
10510;BME280;5303;53.266;10.410;2023-08-06T10:24:55;100295.88;;;17.61;100.00
10510;BME280;5303;53.266;10.410;2023-08-06T10:27:30;100300.94;;;17.67;100.00
10510;BME280;5303;53.266;10.410;2023-08-06T10:30:23;100299.00;;;17.72;100.00
10510;BME280;5303;53.266;10.410;2023-08-06T10:32:49;100296.88;;;17.59;100.00
10510;BME280;5303;53.266;10.410;2023-08-06T10:35:45;100295.09;;;17.59;100.00
10510;BME280;5303;53.266;10.410;2023-08-06T10:38:15;100290.34;;;17.66;100.00
10510;BME280;5303;53.266;10.410;2023-08-06T10:41:00;100292.03;;;17.68;100.00
10510;BME280;5303;53.266;10.410;2023-08-06T10:43:36;100289.94;;;17.76;100.00
10510;BME280;5303;53.266;10.410;2023-08-06T10:46:10;100291.94;;;17.71;100.00
10510;BME280;5303;53.266;10.410;2023-08-06T10:48:38;100288.34;;;17.72;100.00
10510;BME280;5303;53.266;10.410;2023-08-06T10:51:08;100289.84;;;17.79;100.00
10510;BME280;5303;53.266;10.410;2023-08-06T10:53:33;100276.94;;;17.67;100.00
10510;BME280;5303;53.266;10.410;2023-08-06T10:55:59;100279.03;;;17.82;100.00
10510;BME280;5303;53.266;10.410;2023-08-06T10:58:25;100271.84;;;18.05;100.00
10510;BME280;5303;53.266;10.410;2023-08-06T11:00:50;100264.88;;;18.23;100.00
10510;BME280;5303;53.266;10.410;2023-08-06T11:03:16;100263.06;;;18.23;100.00
10510;BME280;5303;53.266;10.410;2023-08-06T11:05:48;100252.91;;;18.52;100.00
10510;BME280;5303;53.266;10.410;2023-08-06T11:08:47;100258.81;;;18.39;100.00
10510;BME280;5303;53.266;10.410;2023-08-06T11:11:13;100246.31;;;18.59;100.00
10510;BME280;5303;53.266;10.410;2023-08-06T11:13:42;100248.09;;;18.80;100.00
10510;BME280;5303;53.266;10.410;2023-08-06T11:16:09;100244.28;;;18.65;100.00
10510;BME280;5303;53.266;10.410;2023-08-06T11:18:35;100249.44;;;18.50;100.00
10510;BME280;5303;53.266;10.410;2023-08-06T11:21:01;100241.53;;;18.47;100.00
10510;BME280;5303;53.266;10.410;2023-08-06T11:23:27;100237.13;;;18.46;100.00
10510;BME280;5303;53.266;10.410;2023-08-06T11:25:54;100242.56;;;18.64;100.00
10510;BME280;5303;53.266;10.410;2023-08-06T11:28:19;100254.72;;;18.72;100.00
10510;BME280;5303;53.266;10.410;2023-08-06T11:30:50;100244.59;;;18.58;100.00
10510;BME280;5303;53.266;10.410;2023-08-06T11:33:20;100256.91;;;18.41;100.00
10510;BME280;5303;53.266;10.410;2023-08-06T11:35:47;100237.34;;;18.61;100.00
10510;BME280;5303;53.266;10.410;2023-08-06T11:38:13;100243.59;;;18.81;100.00
10510;BME280;5303;53.266;10.410;2023-08-06T11:40:38;100236.16;;;18.87;100.00
10510;BME280;5303;53.266;10.410;2023-08-06T11:43:05;100236.16;;;18.87;100.00
10510;BME280;5303;53.266;10.410;2023-08-06T11:45:31;100234.88;;;18.96;100.00
10510;BME280;5303;53.266;10.410;2023-08-06T11:47:56;100233.47;;;18.87;100.00
10510;BME280;5303;53.266;10.410;2023-08-06T11:50:24;100231.72;;;18.67;100.00
10510;BME280;5303;53.266;10.410;2023-08-06T11:52:53;100237.66;;;18.74;100.00
10510;BME280;5303;53.266;10.410;2023-08-06T11:55:23;100233.63;;;18.84;100.00
10510;BME280;5303;53.266;10.410;2023-08-06T11:57:49;100235.59;;;18.81;100.00
10510;BME280;5303;53.266;10.410;2023-08-06T12:00:14;100226.41;;;18.86;100.00
10510;BME280;5303;53.266;10.410;2023-08-06T12:02:45;100226.25;;;18.89;100.00
10510;BME280;5303;53.266;10.410;2023-08-06T12:05:20;100221.13;;;19.04;100.00
10510;BME280;5303;53.266;10.410;2023-08-06T12:07:50;100211.66;;;19.15;100.00
10510;BME280;5303;53.266;10.410;2023-08-06T12:10:16;100217.44;;;19.25;100.00
10510;BME280;5303;53.266;10.410;2023-08-06T12:12:41;100214.69;;;19.26;100.00
10510;BME280;5303;53.266;10.410;2023-08-06T12:15:08;100209.34;;;19.08;100.00
10510;BME280;5303;53.266;10.410;2023-08-06T12:17:34;100207.38;;;19.30;100.00
10510;BME280;5303;53.266;10.410;2023-08-06T12:19:59;100193.53;;;19.39;100.00
10510;BME280;5303;53.266;10.410;2023-08-06T12:22:25;100200.34;;;19.46;100.00
10510;BME280;5303;53.266;10.410;2023-08-06T12:24:50;100195.75;;;19.67;100.00
10510;BME280;5303;53.266;10.410;2023-08-06T12:27:17;100192.69;;;19.75;100.00
10510;BME280;5303;53.266;10.410;2023-08-06T12:29:44;100188.44;;;19.71;100.00
10510;BME280;5303;53.266;10.410;2023-08-06T12:32:13;100191.81;;;19.38;100.00
10510;BME280;5303;53.266;10.410;2023-08-06T12:34:39;100195.19;;;19.61;100.00
10510;BME280;5303;53.266;10.410;2023-08-06T12:37:05;100193.22;;;19.28;100.00